createdAt,value
2023-04-27T00:01:59.795Z,7.53
2023-04-27T00:07:02.567Z,7.59
2023-04-27T00:12:06.304Z,6.19
2023-04-27T00:17:10.290Z,7.25
2023-04-27T00:22:16.346Z,6.93
2023-04-27T00:27:19.229Z,6.99
2023-04-27T00:32:23.850Z,7.02
2023-04-27T00:37:26.738Z,6.94
2023-04-27T00:42:29.798Z,6.86
2023-04-27T00:47:34.605Z,5.68
2023-04-27T00:52:39.318Z,6.89
2023-04-27T00:57:42.121Z,6.04
2023-04-27T01:02:49.257Z,6.82
2023-04-27T01:07:53.547Z,6.77
2023-04-27T01:12:56.115Z,6.65
2023-04-27T01:18:01.380Z,6.71
2023-04-27T01:23:04.070Z,6.72
2023-04-27T01:28:07.942Z,6.53
2023-04-27T01:33:13.185Z,6.37
2023-04-27T01:38:16.086Z,6.57
2023-04-27T01:43:21.191Z,6.73
2023-04-27T01:48:24.065Z,6.70
2023-04-27T01:53:26.707Z,6.66
2023-04-27T01:58:31.418Z,6.61
2023-04-27T02:03:34.203Z,6.67
2023-04-27T02:08:37.104Z,6.60
2023-04-27T02:13:41.015Z,6.48
2023-04-27T02:18:44.528Z,6.47
2023-04-27T02:23:47.101Z,6.54
2023-04-27T02:28:52.104Z,6.60
2023-04-27T02:33:56.326Z,6.52
2023-04-27T02:39:01.487Z,6.60
2023-04-27T02:44:05.640Z,6.39
2023-04-27T02:49:08.357Z,6.39
2023-04-27T02:54:11.479Z,6.45
2023-04-27T02:59:15.903Z,6.37
2023-04-27T03:04:19.024Z,6.31
2023-04-27T03:09:21.810Z,6.31
2023-04-27T03:14:25.676Z,6.09
2023-04-27T03:19:28.287Z,6.16
2023-04-27T03:24:33.315Z,5.70
2023-04-27T03:29:37.271Z,5.81
2023-04-27T03:34:41.276Z,5.86
2023-04-27T03:39:44.848Z,5.91
2023-04-27T03:44:49.287Z,5.97
2023-04-27T03:49:52.649Z,6.02
2023-04-27T03:54:55.649Z,6.03
2023-04-27T03:59:59.637Z,5.86
2023-04-27T04:05:02.356Z,5.96
2023-04-27T04:10:05.547Z,5.99
2023-04-27T04:15:10.123Z,5.95
2023-04-27T04:20:13.615Z,5.91
2023-04-27T04:25:16.524Z,6.01
2023-04-27T04:30:20.497Z,6.06
2023-04-27T04:35:23.426Z,6.03
2023-04-27T04:40:26.623Z,5.85
2023-04-27T04:45:31.010Z,5.84
2023-04-27T04:50:34.061Z,5.88
2023-04-27T04:55:36.802Z,5.38
2023-04-27T05:00:41.902Z,5.94
2023-04-27T05:05:44.450Z,5.97
2023-04-27T05:10:50.433Z,5.96
2023-04-27T05:15:54.530Z,5.96
2023-04-27T05:20:57.088Z,6.00
2023-04-27T05:25:59.661Z,6.08
2023-04-27T05:31:03.533Z,5.93
2023-04-27T05:36:06.583Z,6.62
2023-04-27T05:41:12.637Z,6.82
2023-04-27T05:46:17.543Z,6.97
2023-04-27T05:51:20.127Z,7.13
2023-04-27T05:56:23.491Z,7.13
2023-04-27T06:01:27.421Z,7.39
2023-04-27T06:06:33.062Z,7.48
2023-04-27T06:11:35.678Z,7.65
2023-04-27T06:16:40.487Z,7.73
2023-04-27T06:21:43.539Z,7.87
2023-04-27T06:26:46.108Z,7.93
2023-04-27T06:39:38.385Z,8.24
2023-04-27T06:44:42.294Z,8.41
2023-04-27T06:49:47.459Z,8.52
2023-04-27T06:54:51.624Z,8.55
2023-04-27T06:59:55.581Z,8.69
2023-04-27T07:04:58.239Z,8.87
2023-04-27T07:10:00.836Z,8.94
2023-04-27T07:15:06.533Z,9.11
2023-04-27T07:20:10.105Z,8.98
2023-04-27T07:25:13.576Z,9.21
2023-04-27T07:30:17.799Z,9.41
2023-04-27T07:35:20.360Z,9.55
2023-04-27T07:40:24.171Z,9.50
2023-04-27T07:45:32.277Z,9.79
2023-04-27T07:50:35.387Z,9.93
2023-04-27T07:55:37.954Z,10.01
2023-04-27T08:00:41.856Z,10.13
2023-04-27T08:05:44.757Z,10.19
2023-04-27T08:10:47.631Z,10.29
2023-04-27T08:15:51.835Z,10.41
2023-04-27T08:20:54.401Z,10.52
2023-04-27T08:25:57.384Z,10.59
2023-04-27T08:31:01.814Z,10.70
2023-04-27T08:36:04.924Z,10.85
2023-04-27T08:41:20.825Z,11.02
2023-04-27T08:46:27.395Z,11.17
2023-04-27T08:51:30.187Z,11.31
2023-04-27T08:56:33.233Z,11.38
2023-04-27T09:01:37.500Z,11.54
2023-04-27T09:06:40.190Z,11.66
2023-04-27T09:11:42.735Z,11.76
2023-04-27T09:16:54.829Z,11.85
2023-04-27T09:22:08.472Z,11.95
2023-04-27T09:27:20.958Z,11.97
2023-04-27T09:32:24.880Z,12.08
2023-04-27T09:37:28.073Z,12.18
2023-04-27T09:42:30.819Z,12.25
2023-04-27T09:47:35.043Z,12.37
2023-04-27T09:52:37.727Z,12.29
2023-04-27T09:57:52.489Z,12.33
2023-04-27T10:03:09.085Z,12.50
2023-04-27T10:08:12.402Z,12.54
2023-04-27T10:13:23.243Z,12.56
2023-04-27T10:18:31.741Z,12.73
2023-04-27T10:23:34.290Z,12.78
2023-04-27T10:28:40.002Z,12.81
2023-04-27T10:33:44.555Z,12.83
2023-04-27T10:38:47.164Z,12.81
2023-04-27T10:43:51.281Z,13.00
2023-04-27T10:48:56.758Z,13.02
2023-04-27T10:53:59.868Z,13.11
2023-04-27T10:59:04.858Z,13.12
2023-04-27T11:04:08.831Z,13.28
2023-04-27T11:09:12.401Z,13.39
2023-04-27T11:14:20.529Z,13.52
2023-04-27T11:19:24.415Z,13.78
2023-04-27T11:24:27.005Z,14.16
2023-04-27T11:29:38.917Z,14.17
2023-04-27T11:34:50.707Z,14.08
2023-04-27T11:39:54.166Z,14.10
2023-04-27T11:44:58.885Z,14.15
2023-04-27T11:50:06.500Z,14.18
2023-04-27T11:55:15.621Z,14.43
2023-04-27T12:00:19.369Z,14.61
2023-04-27T12:05:23.416Z,14.85
2023-04-27T12:10:26.130Z,14.86
2023-04-27T12:15:28.705Z,14.88
2023-04-27T12:20:32.706Z,14.95
2023-04-27T12:25:36.279Z,15.01
2023-04-27T12:30:38.895Z,14.97
2023-04-27T12:35:42.840Z,15.14
2023-04-27T12:40:45.553Z,15.17
2023-04-27T12:45:48.104Z,15.17
2023-04-27T12:50:52.411Z,15.53
2023-04-27T12:55:55.489Z,15.59
2023-04-27T13:01:02.359Z,15.79
2023-04-27T13:06:09.050Z,16.18
2023-04-27T13:11:11.660Z,16.57
2023-04-27T13:16:15.785Z,16.89
2023-04-27T13:21:22.604Z,17.18
2023-04-27T13:26:25.745Z,17.52
2023-04-27T13:31:28.723Z,17.68
2023-04-27T13:36:32.725Z,18.12
2023-04-27T13:41:35.758Z,18.44
2023-04-27T13:46:38.323Z,18.67
2023-04-27T13:51:42.438Z,18.87
2023-04-27T13:56:45.838Z,19.04
2023-04-27T14:01:48.778Z,19.10
2023-04-27T14:06:52.655Z,19.08
2023-04-27T14:11:57.375Z,19.06
2023-04-27T14:17:00.160Z,18.89
2023-04-27T14:22:04.588Z,18.72
2023-04-27T14:27:07.387Z,18.42
2023-04-27T14:32:10.182Z,18.53
2023-04-27T14:37:14.193Z,18.55
2023-04-27T14:42:16.778Z,18.61
2023-04-27T14:47:19.614Z,18.48
2023-04-27T14:52:23.652Z,18.34
2023-04-27T14:57:27.052Z,17.86
2023-04-27T15:02:31.839Z,17.70
2023-04-27T15:07:37.737Z,17.55
2023-04-27T15:12:40.690Z,17.42
2023-04-27T15:17:43.223Z,17.32
2023-04-27T15:22:47.452Z,17.24
2023-04-27T15:27:50.224Z,17.13
2023-04-27T15:32:52.798Z,16.98
2023-04-27T15:37:56.683Z,16.92
2023-04-27T15:42:59.521Z,16.79
2023-04-27T15:48:02.210Z,16.69
2023-04-27T15:53:06.175Z,16.44
2023-04-27T15:58:08.914Z,16.53
2023-04-27T16:03:14.013Z,16.39
2023-04-27T16:08:18.132Z,16.38
2023-04-27T16:13:20.679Z,16.33
2023-04-27T16:18:23.679Z,16.25
2023-04-27T16:23:27.624Z,16.15
2023-04-27T16:28:31.881Z,16.03
2023-04-27T16:33:34.503Z,15.95
2023-04-27T16:38:39.411Z,15.80
2023-04-27T16:43:42.488Z,15.69
2023-04-27T16:48:45.229Z,15.58
2023-04-27T16:53:50.544Z,15.55
2023-04-27T16:58:53.650Z,15.46
2023-04-27T17:03:56.946Z,14.84
2023-04-27T17:09:03.006Z,15.23
2023-04-27T17:14:05.608Z,15.10
2023-04-27T17:19:11.317Z,15.03
2023-04-27T17:24:16.370Z,14.85
2023-04-27T17:29:18.993Z,14.76
2023-04-27T17:34:24.439Z,14.61
2023-04-27T17:39:33.570Z,14.50
2023-04-27T17:44:39.231Z,14.40
2023-04-27T17:49:42.125Z,13.89
2023-04-27T17:54:46.062Z,14.19
2023-04-27T17:59:50.023Z,14.07
2023-04-27T18:04:55.642Z,13.99
2023-04-27T18:10:00.829Z,13.79
2023-04-27T18:15:05.554Z,13.82
2023-04-27T18:20:10.980Z,13.79
2023-04-27T18:25:14.948Z,13.73
2023-04-27T18:30:17.805Z,13.66
2023-04-27T18:35:20.434Z,13.61
2023-04-27T18:40:25.832Z,13.52
2023-04-27T18:45:28.625Z,13.49
2023-04-27T18:50:31.811Z,13.41
2023-04-27T18:55:35.854Z,13.35
2023-04-27T19:00:39.742Z,13.30
2023-04-27T19:05:43.045Z,13.28
2023-04-27T19:10:47.649Z,13.18
2023-04-27T19:15:50.380Z,13.19
2023-04-27T19:20:52.994Z,13.17
2023-04-27T19:26:02.743Z,13.13
2023-04-27T19:31:12.625Z,13.05
2023-04-27T19:36:15.673Z,13.06
2023-04-27T19:41:19.565Z,13.02
2023-04-27T19:46:22.153Z,12.95
2023-04-27T19:51:24.924Z,13.02
2023-04-27T19:56:28.786Z,12.95
2023-04-27T20:01:31.725Z,12.73
2023-04-27T20:06:34.491Z,12.93
2023-04-27T20:11:38.562Z,12.88
2023-04-27T20:16:41.641Z,12.89
2023-04-27T20:22:11.744Z,12.93
2023-04-27T20:27:29.253Z,12.93
2023-04-27T20:32:31.877Z,12.91
2023-04-27T20:37:35.506Z,12.84
2023-04-27T20:42:39.447Z,12.77
2023-04-27T20:47:42.048Z,12.82
2023-04-27T20:52:44.825Z,12.86
2023-04-27T20:57:49.042Z,12.78
2023-04-27T21:02:52.041Z,12.82
2023-04-27T21:07:54.942Z,12.77
2023-04-27T21:13:00.245Z,12.77
2023-04-27T21:18:05.040Z,12.72
2023-04-27T21:23:09.231Z,12.82
2023-04-27T21:28:13.933Z,12.76
2023-04-27T21:33:16.580Z,12.78
2023-04-27T21:38:19.118Z,12.74
2023-04-27T21:43:23.024Z,12.75
2023-04-27T21:48:25.753Z,12.75
2023-04-27T21:53:28.340Z,12.74
2023-04-27T21:58:32.230Z,12.76
2023-04-27T22:03:34.887Z,12.75
2023-04-27T22:08:37.546Z,12.73
2023-04-27T22:13:41.811Z,12.72
2023-04-27T22:18:44.440Z,12.69
2023-04-27T22:23:48.308Z,12.63
2023-04-27T22:28:52.422Z,12.64
2023-04-27T22:33:55.012Z,12.61
2023-04-27T22:38:57.568Z,12.58
2023-04-27T22:44:01.472Z,12.56
2023-04-27T22:49:04.426Z,12.56
2023-04-27T22:54:06.957Z,12.57
2023-04-27T22:59:11.071Z,12.56
2023-04-27T23:04:13.990Z,12.49
2023-04-27T23:09:17.076Z,12.50
2023-04-27T23:14:20.944Z,12.48
2023-04-27T23:19:23.569Z,12.46
2023-04-27T23:24:26.097Z,12.41
2023-04-27T23:29:31.293Z,12.38
2023-04-27T23:34:33.813Z,12.32
2023-04-27T23:39:36.387Z,12.30
2023-04-27T23:44:40.322Z,12.28
2023-04-27T23:49:44.096Z,12.18
2023-04-27T23:54:46.616Z,12.12
2023-04-27T23:59:50.477Z,12.10
